Lhanbryd, United Kingdom
Current Conditions -  °F | °C
As of 8:13 AM on Tuesday 21 Oct 2014 (Local Time) from EGQS Reporting Station
Moderate Rain Moderate Rain  
Wind Chill:   Ceiling: 3000
Heat Index:   Visibility: 6mi
Dew Point:   Wind: 26mph
Humidity: 81%   Direction: 280°W
Pressure: 29.09"   Gusts: NA
Location:  57.62°N, 3.22°W
Report Text: EGQS 210713Z 28023KT 9999 RA FEW012 SCT018 OVC030 08/05 Q0985 WHT TEMPO FEW018 BLU
Loading
Personal Weather Stations






























Interactive Weather Map
Tropical Storm Tracking
New forecast layout! Learn more

10-Day Weather Forecast

Advertisements
Track Severe Weather on mobile